This is the latest recevied weather packets stored in our database for station/object EA7AVH-10. If no packets are shown the sender has not sent any weather packets the latest 10 day(s).
| Time | Temp. | Humidity | Pressure | Rain* | Wind** | Luminosity | Snow |
|---|---|---|---|---|---|---|---|
| 1777532533 | 27.22° C | 57% | 923.7 hPa | - | - | - | - |
| 1777531632 | 26.11° C | 58% | 923.6 hPa | - | - | - | - |
| 1777530731 | 22.22° C | 64% | 923.5 hPa | - | - | - | - |
| 1777529830 | 16.67° C | 75% | 923.5 hPa | - | - | - | - |
| 1777528930 | 15.56° C | 76% | 923.4 hPa | - | - | - | - |
| 1777528029 | 16.11° C | 74% | 923.3 hPa | - | - | - | - |
| 1777527128 | 14.44° C | 77% | 923 hPa | - | - | - | - |
| 1777526227 | 14.44° C | 77% | 922.8 hPa | - | - | - | - |
| 1777525345 | 13.89° C | 78% | 922.7 hPa | - | - | - | - |
| 1777524444 | 13.89° C | 78% | 922.5 hPa | - | - | - | - |
| 1777523543 | 13.89° C | 78% | 922.4 hPa | - | - | - | - |
| 1777522642 | 12.78° C | 79% | 922.4 hPa | - | - | - | - |
| 1777521742 | 13.33° C | 78% | 922.4 hPa | - | - | - | - |
| 1777520841 | 13.89° C | 78% | 922.4 hPa | - | - | - | - |
| 1777519940 | 13.89° C | 78% | 922.4 hPa | - | - | - | - |
| 1777519039 | 13.89° C | 78% | 922.4 hPa | - | - | - | - |
| 1777518139 | 13.89° C | 78% | 922.4 hPa | - | - | - | - |
| 1777517238 | 14.44° C | 77% | 922.4 hPa | - | - | - | - |
| 1777516337 | 15° C | 77% | 922.4 hPa | - | - | - | - |
| 1777515436 | 14.44° C | 77% | 922.4 hPa | - | - | - | - |
| 1777514535 | 14.44° C | 77% | 922.5 hPa | - | - | - | - |
| 1777513634 | 13.89° C | 77% | 922.4 hPa | - | - | - | - |
| 1777512734 | 13.33° C | 78% | 922.5 hPa | - | - | - | - |
| 1777511833 | 12.78° C | 78% | 922.6 hPa | - | - | - | - |
| 1777510932 | 12.78° C | 77% | 922.6 hPa | - | - | - | - |
* Rain since midnight (hover to see other rain measurements)
** Current wind speed in m/s (hover to see current wind gust speed)